SAS17 ESGG-ENGM
Flight info
| Callsign | SAS17 |
|---|---|
| Flight time | 0h 33m |
| Altitude | 24000 |
| Route | SABAK L997 XENTA DCT REGMA DCT LUNIP |
| Aircraft | A343/H-SDE2E3FGHIJ4J5M1RWXY/LB1D1 |
Departure
| Time | 2026-05-05 06:47 |
|---|---|
| Airport | Göteborg Landvetter Airport (ESGG) |
Arrival
| Time | 2026-05-05 07:20 |
|---|---|
| Airport | Oslo-Gardermoen International Airport (ENGM) |
| Time | Latitude | Longitude | Altitude | Speed | Heading |
|---|---|---|---|---|---|
| 2026-05-05 06:08 | 57.67477 | 12.29770 | 524 ft | 0 kts | 308° |
| 2026-05-05 06:40 | 57.67496 | 12.29721 | 524 ft | 11 kts | 302° |
| 2026-05-05 06:41 | 57.67527 | 12.29600 | 527 ft | 9 kts | 294° |
| 2026-05-05 06:41 | 57.67525 | 12.29467 | 527 ft | 13 kts | 237° |
| 2026-05-05 06:41 | 57.67440 | 12.29383 | 528 ft | 16 kts | 204° |
| 2026-05-05 06:41 | 57.67326 | 12.29287 | 525 ft | 20 kts | 205° |
| 2026-05-05 06:42 | 57.67196 | 12.29161 | 526 ft | 22 kts | 207° |
| 2026-05-05 06:42 | 57.67052 | 12.29029 | 528 ft | 24 kts | 206° |
| 2026-05-05 06:42 | 57.66895 | 12.28886 | 527 ft | 26 kts | 206° |
| 2026-05-05 06:42 | 57.66727 | 12.28730 | 522 ft | 28 kts | 206° |
| 2026-05-05 06:43 | 57.66552 | 12.28566 | 522 ft | 27 kts | 206° |
| 2026-05-05 06:43 | 57.66383 | 12.28416 | 525 ft | 26 kts | 205° |
| 2026-05-05 06:43 | 57.66213 | 12.28265 | 522 ft | 30 kts | 205° |
| 2026-05-05 06:43 | 57.66024 | 12.28091 | 521 ft | 30 kts | 206° |
| 2026-05-05 06:44 | 57.65843 | 12.27929 | 527 ft | 27 kts | 206° |
| 2026-05-05 06:44 | 57.65675 | 12.27773 | 528 ft | 27 kts | 206° |
| 2026-05-05 06:44 | 57.65506 | 12.27615 | 525 ft | 27 kts | 206° |
| 2026-05-05 06:44 | 57.65327 | 12.27448 | 525 ft | 29 kts | 206° |
| 2026-05-05 06:45 | 57.65146 | 12.27283 | 525 ft | 29 kts | 206° |
| 2026-05-05 06:45 | 57.64963 | 12.27120 | 523 ft | 29 kts | 205° |
| 2026-05-05 06:45 | 57.64896 | 12.27039 | 520 ft | 4 kts | 232° |
| 2026-05-05 06:45 | 57.64898 | 12.26909 | 522 ft | 14 kts | 304° |
| 2026-05-05 06:46 | 57.64974 | 12.26803 | 527 ft | 12 kts | 341° |
| 2026-05-05 06:46 | 57.65050 | 12.26841 | 530 ft | 15 kts | 26° |
| 2026-05-05 06:46 | 57.65319 | 12.27086 | 528 ft | 74 kts | 26° |
| 2026-05-05 06:46 | 57.65948 | 12.27656 | 526 ft | 124 kts | 26° |
| 2026-05-05 06:47 | 57.66850 | 12.28490 | 586 ft | 159 kts | 27° |
| 2026-05-05 06:47 | 57.67776 | 12.29442 | 1265 ft | 148 kts | 31° |
| 2026-05-05 06:47 | 57.68710 | 12.30443 | 1621 ft | 167 kts | 25° |
| 2026-05-05 06:47 | 57.69867 | 12.31300 | 1861 ft | 192 kts | 10° |
| 2026-05-05 06:48 | 57.71177 | 12.30695 | 2252 ft | 207 kts | 323° |
| 2026-05-05 06:48 | 57.72013 | 12.28451 | 2978 ft | 213 kts | 294° |
| 2026-05-05 06:48 | 57.72657 | 12.25996 | 3908 ft | 209 kts | 299° |
| 2026-05-05 06:48 | 57.73454 | 12.23694 | 4720 ft | 213 kts | 304° |
| 2026-05-05 06:49 | 57.74390 | 12.21484 | 5478 ft | 219 kts | 309° |
| 2026-05-05 06:49 | 57.75282 | 12.19159 | 6252 ft | 223 kts | 296° |
| 2026-05-05 06:49 | 57.75797 | 12.16353 | 6828 ft | 237 kts | 283° |
| 2026-05-05 06:49 | 57.76160 | 12.13279 | 7375 ft | 250 kts | 282° |
| 2026-05-05 06:50 | 57.76590 | 12.10030 | 8101 ft | 257 kts | 289° |
| 2026-05-05 06:50 | 57.77508 | 12.07133 | 8847 ft | 265 kts | 313° |
| 2026-05-05 06:50 | 57.78989 | 12.05089 | 9583 ft | 272 kts | 328° |
| 2026-05-05 06:50 | 57.80685 | 12.03324 | 10258 ft | 280 kts | 329° |
| 2026-05-05 06:51 | 57.82429 | 12.01547 | 10600 ft | 299 kts | 328° |
| 2026-05-05 06:51 | 57.84313 | 11.99606 | 10905 ft | 317 kts | 328° |
| 2026-05-05 06:51 | 57.86291 | 11.97557 | 11233 ft | 333 kts | 328° |
| 2026-05-05 06:51 | 57.88363 | 11.95394 | 11675 ft | 344 kts | 328° |
| 2026-05-05 06:52 | 57.90484 | 11.93176 | 12246 ft | 351 kts | 327° |
| 2026-05-05 06:52 | 57.92628 | 11.90928 | 12869 ft | 356 kts | 327° |
| 2026-05-05 06:52 | 57.94801 | 11.88642 | 13499 ft | 360 kts | 327° |
| 2026-05-05 06:52 | 57.96973 | 11.86354 | 14127 ft | 363 kts | 327° |
| 2026-05-05 06:53 | 57.99190 | 11.84013 | 14748 ft | 367 kts | 327° |
| 2026-05-05 06:53 | 58.01452 | 11.81618 | 15387 ft | 370 kts | 327° |
| 2026-05-05 06:53 | 58.03693 | 11.79244 | 16045 ft | 373 kts | 327° |
| 2026-05-05 06:53 | 58.05954 | 11.76846 | 16650 ft | 377 kts | 327° |
| 2026-05-05 06:54 | 58.08247 | 11.74409 | 17267 ft | 380 kts | 327° |
| 2026-05-05 06:54 | 58.10556 | 11.71950 | 17894 ft | 382 kts | 327° |
| 2026-05-05 06:54 | 58.12886 | 11.69468 | 18498 ft | 386 kts | 327° |
| 2026-05-05 06:54 | 58.15238 | 11.66963 | 19046 ft | 390 kts | 327° |
| 2026-05-05 06:55 | 58.17709 | 11.64763 | 19597 ft | 398 kts | 337° |
| 2026-05-05 06:55 | 58.20406 | 11.63361 | 20167 ft | 404 kts | 343° |
| 2026-05-05 06:55 | 58.23181 | 11.62342 | 20672 ft | 410 kts | 346° |
| 2026-05-05 06:55 | 58.26011 | 11.61501 | 21158 ft | 414 kts | 348° |
| 2026-05-05 06:56 | 58.28880 | 11.60717 | 21657 ft | 418 kts | 348° |
| 2026-05-05 06:56 | 58.31773 | 11.59926 | 22148 ft | 421 kts | 347° |
| 2026-05-05 06:56 | 58.34676 | 11.59104 | 22603 ft | 424 kts | 347° |
| 2026-05-05 06:56 | 58.37601 | 11.58242 | 23075 ft | 427 kts | 347° |
| 2026-05-05 06:57 | 58.40531 | 11.57355 | 23525 ft | 429 kts | 347° |
| 2026-05-05 06:57 | 58.43504 | 11.56436 | 23839 ft | 434 kts | 346° |
| 2026-05-05 06:57 | 58.46475 | 11.55506 | 23902 ft | 442 kts | 346° |
| 2026-05-05 06:57 | 58.49578 | 11.54530 | 23903 ft | 446 kts | 346° |
| 2026-05-05 06:58 | 58.51838 | 11.53821 | 23904 ft | 446 kts | 346° |
| 2026-05-05 06:58 | 58.54522 | 11.52980 | 23908 ft | 446 kts | 346° |
| 2026-05-05 06:58 | 58.57585 | 11.52022 | 23907 ft | 445 kts | 346° |
| 2026-05-05 06:58 | 58.60638 | 11.51066 | 23907 ft | 445 kts | 346° |
| 2026-05-05 06:59 | 58.63700 | 11.50104 | 23907 ft | 445 kts | 346° |
| 2026-05-05 06:59 | 58.66762 | 11.49143 | 23906 ft | 445 kts | 346° |
| 2026-05-05 06:59 | 58.69782 | 11.48192 | 23908 ft | 445 kts | 346° |
| 2026-05-05 06:59 | 58.72831 | 11.47228 | 23907 ft | 445 kts | 346° |
| 2026-05-05 07:00 | 58.75900 | 11.46257 | 23906 ft | 445 kts | 346° |
| 2026-05-05 07:00 | 58.78928 | 11.45301 | 23555 ft | 439 kts | 346° |
| 2026-05-05 07:00 | 58.81953 | 11.44345 | 22773 ft | 441 kts | 346° |
| 2026-05-05 07:00 | 58.84978 | 11.43381 | 22068 ft | 440 kts | 346° |
| 2026-05-05 07:01 | 58.87967 | 11.42432 | 21134 ft | 430 kts | 346° |
| 2026-05-05 07:01 | 58.90871 | 11.41517 | 19990 ft | 413 kts | 346° |
| 2026-05-05 07:01 | 58.93603 | 11.40665 | 19591 ft | 383 kts | 346° |
| 2026-05-05 07:01 | 58.96184 | 11.39855 | 19148 ft | 376 kts | 346° |
| 2026-05-05 07:02 | 58.98802 | 11.39006 | 18636 ft | 380 kts | 346° |
| 2026-05-05 07:02 | 59.00854 | 11.38332 | 18339 ft | 378 kts | 346° |
| 2026-05-05 07:02 | 59.03405 | 11.37504 | 18211 ft | 366 kts | 346° |
| 2026-05-05 07:02 | 59.05879 | 11.36711 | 18096 ft | 354 kts | 346° |
| 2026-05-05 07:03 | 59.08274 | 11.35944 | 17963 ft | 344 kts | 345° |
| 2026-05-05 07:03 | 59.10591 | 11.35197 | 17817 ft | 336 kts | 345° |
| 2026-05-05 07:03 | 59.12865 | 11.34372 | 17668 ft | 325 kts | 341° |
| 2026-05-05 07:03 | 59.15032 | 11.33315 | 17529 ft | 317 kts | 340° |
| 2026-05-05 07:04 | 59.17149 | 11.32265 | 17376 ft | 312 kts | 340° |
| 2026-05-05 07:04 | 59.19288 | 11.31451 | 17096 ft | 316 kts | 347° |
| 2026-05-05 07:04 | 59.21478 | 11.30939 | 16772 ft | 317 kts | 348° |
| 2026-05-05 07:04 | 59.23665 | 11.30487 | 16539 ft | 314 kts | 348° |
| 2026-05-05 07:05 | 59.25835 | 11.30043 | 16226 ft | 314 kts | 348° |
| 2026-05-05 07:05 | 59.27975 | 11.29601 | 15915 ft | 313 kts | 349° |
| 2026-05-05 07:05 | 59.30137 | 11.29154 | 15637 ft | 311 kts | 348° |
| 2026-05-05 07:05 | 59.32285 | 11.28711 | 15359 ft | 310 kts | 349° |
| 2026-05-05 07:06 | 59.34453 | 11.28262 | 15077 ft | 308 kts | 349° |
| 2026-05-05 07:06 | 59.36552 | 11.27827 | 14820 ft | 306 kts | 349° |
| 2026-05-05 07:06 | 59.38660 | 11.27386 | 14550 ft | 305 kts | 349° |
| 2026-05-05 07:06 | 59.40761 | 11.26946 | 14136 ft | 299 kts | 349° |
| 2026-05-05 07:07 | 59.42820 | 11.26518 | 13500 ft | 297 kts | 349° |
| 2026-05-05 07:07 | 59.44846 | 11.26097 | 13068 ft | 289 kts | 349° |
| 2026-05-05 07:07 | 59.46814 | 11.25681 | 12743 ft | 279 kts | 348° |
| 2026-05-05 07:07 | 59.48701 | 11.25227 | 12461 ft | 269 kts | 348° |
| 2026-05-05 07:08 | 59.50539 | 11.24775 | 12229 ft | 263 kts | 348° |
| 2026-05-05 07:08 | 59.52301 | 11.24348 | 12104 ft | 248 kts | 348° |
| 2026-05-05 07:08 | 59.54013 | 11.23929 | 11996 ft | 253 kts | 348° |
| 2026-05-05 07:08 | 59.55765 | 11.23503 | 11898 ft | 254 kts | 348° |
| 2026-05-05 07:09 | 59.57525 | 11.23077 | 11846 ft | 255 kts | 348° |
| 2026-05-05 07:09 | 59.59261 | 11.22659 | 11787 ft | 253 kts | 349° |
| 2026-05-05 07:09 | 59.61025 | 11.22511 | 11570 ft | 257 kts | 2° |
| 2026-05-05 07:09 | 59.62727 | 11.23757 | 11321 ft | 267 kts | 33° |
| 2026-05-05 07:10 | 59.63926 | 11.26560 | 11103 ft | 272 kts | 62° |
| 2026-05-05 07:10 | 59.64624 | 11.30043 | 10933 ft | 271 kts | 69° |
| 2026-05-05 07:10 | 59.65461 | 11.33373 | 10619 ft | 273 kts | 51° |
| 2026-05-05 07:10 | 59.66878 | 11.35890 | 10079 ft | 277 kts | 24° |
| 2026-05-05 07:11 | 59.68734 | 11.36684 | 9589 ft | 275 kts | 353° |
| 2026-05-05 07:11 | 59.70535 | 11.35579 | 9248 ft | 271 kts | 334° |
| 2026-05-05 07:11 | 59.72349 | 11.34538 | 8877 ft | 273 kts | 348° |
| 2026-05-05 07:11 | 59.74193 | 11.33719 | 8276 ft | 270 kts | 345° |
| 2026-05-05 07:12 | 59.75992 | 11.32771 | 7533 ft | 266 kts | 343° |
| 2026-05-05 07:12 | 59.77708 | 11.31739 | 7251 ft | 247 kts | 342° |
| 2026-05-05 07:12 | 59.79279 | 11.30563 | 7192 ft | 244 kts | 333° |
| 2026-05-05 07:12 | 59.80744 | 11.28831 | 6955 ft | 252 kts | 326° |
| 2026-05-05 07:13 | 59.82203 | 11.26825 | 6591 ft | 258 kts | 324° |
| 2026-05-05 07:13 | 59.83664 | 11.24718 | 6294 ft | 259 kts | 323° |
| 2026-05-05 07:13 | 59.85111 | 11.22593 | 6028 ft | 259 kts | 323° |
| 2026-05-05 07:13 | 59.86573 | 11.20428 | 5727 ft | 258 kts | 323° |
| 2026-05-05 07:14 | 59.87984 | 11.18330 | 5545 ft | 253 kts | 323° |
| 2026-05-05 07:14 | 59.89367 | 11.16266 | 5408 ft | 244 kts | 323° |
| 2026-05-05 07:14 | 59.90706 | 11.14265 | 5300 ft | 236 kts | 323° |
| 2026-05-05 07:14 | 59.91996 | 11.12330 | 5191 ft | 228 kts | 323° |
| 2026-05-05 07:15 | 59.93173 | 11.10275 | 5044 ft | 223 kts | 316° |
| 2026-05-05 07:15 | 59.94278 | 11.08081 | 4957 ft | 225 kts | 315° |
| 2026-05-05 07:15 | 59.95379 | 11.05862 | 4896 ft | 225 kts | 315° |
| 2026-05-05 07:15 | 59.96476 | 11.03652 | 4833 ft | 222 kts | 315° |
| 2026-05-05 07:16 | 59.97592 | 11.01535 | 4573 ft | 222 kts | 322° |
| 2026-05-05 07:16 | 59.99010 | 11.00416 | 4286 ft | 225 kts | 358° |
| 2026-05-05 07:16 | 60.00543 | 11.00922 | 4040 ft | 226 kts | 16° |
| 2026-05-05 07:16 | 60.02027 | 11.01896 | 3833 ft | 225 kts | 16° |
| 2026-05-05 07:17 | 60.03544 | 11.02762 | 3536 ft | 227 kts | 14° |
| 2026-05-05 07:17 | 60.05071 | 11.03599 | 3218 ft | 229 kts | 15° |
| 2026-05-05 07:17 | 60.06614 | 11.04493 | 2912 ft | 233 kts | 15° |
| 2026-05-05 07:17 | 60.08179 | 11.05393 | 2585 ft | 236 kts | 15° |
| 2026-05-05 07:18 | 60.09747 | 11.06282 | 2323 ft | 226 kts | 15° |
| 2026-05-05 07:18 | 60.11201 | 11.07120 | 2006 ft | 208 kts | 15° |
| 2026-05-05 07:18 | 60.12522 | 11.07879 | 1727 ft | 190 kts | 15° |
| 2026-05-05 07:18 | 60.13737 | 11.08573 | 1499 ft | 174 kts | 15° |
| 2026-05-05 07:19 | 60.14491 | 11.09007 | 1341 ft | 164 kts | 15° |
| 2026-05-05 07:19 | 60.15534 | 11.09608 | 1134 ft | 150 kts | 15° |
| 2026-05-05 07:19 | 60.16502 | 11.10193 | 924 ft | 141 kts | 15° |
| 2026-05-05 07:19 | 60.17751 | 11.10879 | 751 ft | 134 kts | 14° |
| 2026-05-05 07:20 | 60.18569 | 11.11396 | 682 ft | 105 kts | 17° |
| 2026-05-05 07:20 | 60.18969 | 11.11585 | 683 ft | 70 kts | 12° |
| 2026-05-05 07:20 | 60.19302 | 11.11770 | 687 ft | 43 kts | 15° |
| 2026-05-05 07:20 | 60.19578 | 11.11885 | 686 ft | 35 kts | 1° |
| 2026-05-05 07:21 | 60.19695 | 11.11769 | 685 ft | 15 kts | 298° |
| 2026-05-05 07:21 | 60.19748 | 11.11471 | 687 ft | 25 kts | 294° |
| 2026-05-05 07:21 | 60.19812 | 11.11140 | 681 ft | 26 kts | 286° |
| 2026-05-05 07:21 | 60.19858 | 11.10793 | 685 ft | 24 kts | 284° |
| 2026-05-05 07:22 | 60.19826 | 11.10545 | 686 ft | 15 kts | 204° |
| 2026-05-05 07:22 | 60.19808 | 11.10532 | 686 ft | 0 kts | 198° |
| 2026-05-05 07:22 | 60.19807 | 11.10531 | 686 ft | 1 kts | 198° |
| 2026-05-05 07:22 | 60.19801 | 11.10527 | 686 ft | 2 kts | 197° |
| 2026-05-05 07:23 | 60.19781 | 11.10517 | 684 ft | 4 kts | 194° |
| 2026-05-05 07:23 | 60.19721 | 11.10489 | 682 ft | 19 kts | 193° |
| 2026-05-05 07:23 | 60.19599 | 11.10426 | 679 ft | 12 kts | 187° |
| 2026-05-05 07:23 | 60.19515 | 11.10398 | 680 ft | 7 kts | 192° |
| 2026-05-05 07:24 | 60.19461 | 11.10367 | 680 ft | 9 kts | 197° |
| 2026-05-05 07:24 | 60.19444 | 11.10357 | 681 ft | 0 kts | 197° |